sensor_id;sensor_type;location;lat;lon;timestamp;pressure;altitude;pressure_sealevel;temperature;humidity
75089;BME280;63673;49.928;8.150;2023-05-14T00:00:25;992.5;;;10.08;100
75089;BME280;63673;49.928;8.150;2023-05-14T00:01:26;992.49;;;10.09;100
75089;BME280;63673;49.928;8.150;2023-05-14T00:02:28;992.48;;;10.09;100
75089;BME280;63673;49.928;8.150;2023-05-14T00:03:30;992.42;;;10.08;100
75089;BME280;63673;49.928;8.150;2023-05-14T00:04:32;992.46;;;10.08;100
75089;BME280;63673;49.928;8.150;2023-05-14T00:05:33;992.48;;;10.09;100
75089;BME280;63673;49.928;8.150;2023-05-14T00:06:35;992.5;;;10.09;100
75089;BME280;63673;49.928;8.150;2023-05-14T00:07:37;992.46;;;10.1;100
75089;BME280;63673;49.928;8.150;2023-05-14T00:08:38;992.49;;;10.1;100
75089;BME280;63673;49.928;8.150;2023-05-14T00:09:40;992.5;;;10.11;100
75089;BME280;63673;49.928;8.150;2023-05-14T00:10:42;992.47;;;10.12;100
75089;BME280;63673;49.928;8.150;2023-05-14T00:11:49;992.42;;;10.13;100
75089;BME280;63673;49.928;8.150;2023-05-14T00:12:51;992.47;;;10.13;100
75089;BME280;63673;49.928;8.150;2023-05-14T00:13:52;992.41;;;10.15;100
75089;BME280;63673;49.928;8.150;2023-05-14T00:14:54;992.43;;;10.16;100
75089;BME280;63673;49.928;8.150;2023-05-14T00:15:56;992.38;;;10.16;100
75089;BME280;63673;49.928;8.150;2023-05-14T00:16:58;992.45;;;10.17;100
75089;BME280;63673;49.928;8.150;2023-05-14T00:17:59;992.4;;;10.17;100
75089;BME280;63673;49.928;8.150;2023-05-14T00:19:01;992.42;;;10.19;100
75089;BME280;63673;49.928;8.150;2023-05-14T00:20:03;992.42;;;10.19;100
75089;BME280;63673;49.928;8.150;2023-05-14T00:21:04;992.44;;;10.18;100
75089;BME280;63673;49.928;8.150;2023-05-14T00:22:06;992.34;;;10.18;100
75089;BME280;63673;49.928;8.150;2023-05-14T00:23:08;992.36;;;10.19;100
75089;BME280;63673;49.928;8.150;2023-05-14T00:24:10;992.4;;;10.19;100
75089;BME280;63673;49.928;8.150;2023-05-14T00:25:11;992.37;;;10.2;100
75089;BME280;63673;49.928;8.150;2023-05-14T00:26:13;992.38;;;10.21;100
75089;BME280;63673;49.928;8.150;2023-05-14T00:27:15;992.39;;;10.21;100
75089;BME280;63673;49.928;8.150;2023-05-14T00:28:17;992.37;;;10.22;100
75089;BME280;63673;49.928;8.150;2023-05-14T00:29:18;992.39;;;10.23;100
75089;BME280;63673;49.928;8.150;2023-05-14T00:30:20;992.4;;;10.24;100
75089;BME280;63673;49.928;8.150;2023-05-14T00:31:22;992.37;;;10.26;100
75089;BME280;63673;49.928;8.150;2023-05-14T00:32:24;992.37;;;10.27;100
75089;BME280;63673;49.928;8.150;2023-05-14T00:33:25;992.39;;;10.29;100
75089;BME280;63673;49.928;8.150;2023-05-14T00:34:27;992.33;;;10.32;100
75089;BME280;63673;49.928;8.150;2023-05-14T00:35:29;992.36;;;10.33;100
75089;BME280;63673;49.928;8.150;2023-05-14T00:36:30;992.3;;;10.36;100
75089;BME280;63673;49.928;8.150;2023-05-14T00:37:32;992.33;;;10.38;100
75089;BME280;63673;49.928;8.150;2023-05-14T00:38:34;992.27;;;10.39;100
75089;BME280;63673;49.928;8.150;2023-05-14T00:39:36;992.26;;;10.41;100
75089;BME280;63673;49.928;8.150;2023-05-14T00:40:37;992.27;;;10.41;100
75089;BME280;63673;49.928;8.150;2023-05-14T00:41:39;992.21;;;10.41;100
75089;BME280;63673;49.928;8.150;2023-05-14T00:42:41;992.18;;;10.41;100
75089;BME280;63673;49.928;8.150;2023-05-14T00:43:43;992.27;;;10.41;100
75089;BME280;63673;49.928;8.150;2023-05-14T00:44:44;992.16;;;10.4;100
75089;BME280;63673;49.928;8.150;2023-05-14T00:45:46;992.25;;;10.39;100
75089;BME280;63673;49.928;8.150;2023-05-14T00:46:48;992.26;;;10.37;100
75089;BME280;63673;49.928;8.150;2023-05-14T00:47:50;992.27;;;10.35;100
75089;BME280;63673;49.928;8.150;2023-05-14T00:48:51;992.22;;;10.33;100
75089;BME280;63673;49.928;8.150;2023-05-14T00:49:53;992.22;;;10.3;100
75089;BME280;63673;49.928;8.150;2023-05-14T00:50:55;992.24;;;10.28;100
75089;BME280;63673;49.928;8.150;2023-05-14T00:51:57;992.26;;;10.25;100
75089;BME280;63673;49.928;8.150;2023-05-14T00:52:58;992.24;;;10.22;100
75089;BME280;63673;49.928;8.150;2023-05-14T00:54:00;992.13;;;10.19;100
75089;BME280;63673;49.928;8.150;2023-05-14T00:55:02;992.18;;;10.17;100
75089;BME280;63673;49.928;8.150;2023-05-14T00:56:04;992.21;;;10.14;100
75089;BME280;63673;49.928;8.150;2023-05-14T00:57:05;992.2;;;10.11;100
75089;BME280;63673;49.928;8.150;2023-05-14T00:58:08;992.16;;;10.09;100
75089;BME280;63673;49.928;8.150;2023-05-14T00:59:09;992.19;;;10.06;100
75089;BME280;63673;49.928;8.150;2023-05-14T01:00:11;992.17;;;10.02;100
75089;BME280;63673;49.928;8.150;2023-05-14T01:01:12;992.06;;;10;100
75089;BME280;63673;49.928;8.150;2023-05-14T01:02:14;992.14;;;9.98;100
75089;BME280;63673;49.928;8.150;2023-05-14T01:03:16;992.14;;;9.96;100
75089;BME280;63673;49.928;8.150;2023-05-14T01:04:17;992.15;;;9.93;100
75089;BME280;63673;49.928;8.150;2023-05-14T01:05:19;992.12;;;9.9;100
75089;BME280;63673;49.928;8.150;2023-05-14T01:06:22;992.05;;;9.88;100
75089;BME280;63673;49.928;8.150;2023-05-14T01:07:24;992.12;;;9.84;100
75089;BME280;63673;49.928;8.150;2023-05-14T01:08:26;992.13;;;9.82;100
75089;BME280;63673;49.928;8.150;2023-05-14T01:09:28;992.16;;;9.78;100
75089;BME280;63673;49.928;8.150;2023-05-14T01:10:30;992.14;;;9.75;100
75089;BME280;63673;49.928;8.150;2023-05-14T01:11:30;992.12;;;9.73;100
75089;BME280;63673;49.928;8.150;2023-05-14T01:12:32;992.15;;;9.71;100
75089;BME280;63673;49.928;8.150;2023-05-14T01:13:36;992.17;;;9.67;100
75089;BME280;63673;49.928;8.150;2023-05-14T01:14:37;992.15;;;9.65;100
75089;BME280;63673;49.928;8.150;2023-05-14T01:15:36;992.17;;;9.63;100
75089;BME280;63673;49.928;8.150;2023-05-14T01:16:38;992.21;;;9.6;100
75089;BME280;63673;49.928;8.150;2023-05-14T01:17:41;992.19;;;9.57;100
75089;BME280;63673;49.928;8.150;2023-05-14T01:18:42;992.18;;;9.55;100
75089;BME280;63673;49.928;8.150;2023-05-14T01:19:43;992.17;;;9.54;100
75089;BME280;63673;49.928;8.150;2023-05-14T01:20:45;992.18;;;9.52;100
75089;BME280;63673;49.928;8.150;2023-05-14T01:21:47;992.16;;;9.5;100
75089;BME280;63673;49.928;8.150;2023-05-14T01:22:48;992.13;;;9.47;100
75089;BME280;63673;49.928;8.150;2023-05-14T01:23:50;992.13;;;9.45;100
75089;BME280;63673;49.928;8.150;2023-05-14T01:24:52;992.1;;;9.43;100
75089;BME280;63673;49.928;8.150;2023-05-14T01:25:54;992.08;;;9.41;100
75089;BME280;63673;49.928;8.150;2023-05-14T01:26:57;992.08;;;9.39;100
75089;BME280;63673;49.928;8.150;2023-05-14T01:27:58;992.07;;;9.36;100
75089;BME280;63673;49.928;8.150;2023-05-14T01:29:00;992.06;;;9.34;100
75089;BME280;63673;49.928;8.150;2023-05-14T01:30:02;992.04;;;9.31;100
75089;BME280;63673;49.928;8.150;2023-05-14T01:31:03;992.09;;;9.28;100
75089;BME280;63673;49.928;8.150;2023-05-14T01:32:05;992.04;;;9.25;100
75089;BME280;63673;49.928;8.150;2023-05-14T01:33:08;992.07;;;9.22;100
75089;BME280;63673;49.928;8.150;2023-05-14T01:34:08;992.02;;;9.17;100
75089;BME280;63673;49.928;8.150;2023-05-14T01:35:09;992.02;;;9.14;100
75089;BME280;63673;49.928;8.150;2023-05-14T01:36:11;992.04;;;9.1;100
75089;BME280;63673;49.928;8.150;2023-05-14T01:37:13;991.98;;;9.08;100
75089;BME280;63673;49.928;8.150;2023-05-14T01:38:15;992.06;;;9.05;100
75089;BME280;63673;49.928;8.150;2023-05-14T01:39:16;992.08;;;9.01;100
75089;BME280;63673;49.928;8.150;2023-05-14T01:40:18;992.07;;;8.99;100
75089;BME280;63673;49.928;8.150;2023-05-14T01:41:20;992.05;;;8.96;100
75089;BME280;63673;49.928;8.150;2023-05-14T01:42:21;992.09;;;8.93;100
75089;BME280;63673;49.928;8.150;2023-05-14T01:43:23;992.11;;;8.91;100
75089;BME280;63673;49.928;8.150;2023-05-14T01:44:25;992.05;;;8.89;100
75089;BME280;63673;49.928;8.150;2023-05-14T01:45:27;992.05;;;8.87;100
75089;BME280;63673;49.928;8.150;2023-05-14T01:46:29;992.06;;;8.87;100
75089;BME280;63673;49.928;8.150;2023-05-14T01:47:30;992.1;;;8.86;100
75089;BME280;63673;49.928;8.150;2023-05-14T01:48:32;992.12;;;8.85;100
75089;BME280;63673;49.928;8.150;2023-05-14T01:49:34;992.14;;;8.85;100
75089;BME280;63673;49.928;8.150;2023-05-14T01:50:35;992.1;;;8.85;100
75089;BME280;63673;49.928;8.150;2023-05-14T01:51:37;992.1;;;8.85;100
75089;BME280;63673;49.928;8.150;2023-05-14T01:52:39;992.1;;;8.85;100
75089;BME280;63673;49.928;8.150;2023-05-14T01:53:41;992.08;;;8.86;100
75089;BME280;63673;49.928;8.150;2023-05-14T01:54:42;992.07;;;8.86;100
75089;BME280;63673;49.928;8.150;2023-05-14T01:55:44;992.05;;;8.86;100
75089;BME280;63673;49.928;8.150;2023-05-14T01:56:46;992.05;;;8.86;100
75089;BME280;63673;49.928;8.150;2023-05-14T01:57:47;992.05;;;8.87;100
75089;BME280;63673;49.928;8.150;2023-05-14T01:58:49;992.07;;;8.88;100
75089;BME280;63673;49.928;8.150;2023-05-14T01:59:51;992.02;;;8.88;100
75089;BME280;63673;49.928;8.150;2023-05-14T02:00:53;992.08;;;8.88;100
75089;BME280;63673;49.928;8.150;2023-05-14T02:01:54;992;;;8.89;100
75089;BME280;63673;49.928;8.150;2023-05-14T02:02:56;992.04;;;8.91;100
75089;BME280;63673;49.928;8.150;2023-05-14T02:03:58;992.04;;;8.91;100
75089;BME280;63673;49.928;8.150;2023-05-14T02:05:00;991.97;;;8.92;100
75089;BME280;63673;49.928;8.150;2023-05-14T02:06:01;992.01;;;8.92;100
75089;BME280;63673;49.928;8.150;2023-05-14T02:07:03;992.03;;;8.92;100
75089;BME280;63673;49.928;8.150;2023-05-14T02:08:05;991.97;;;8.92;100
75089;BME280;63673;49.928;8.150;2023-05-14T02:09:07;992;;;8.91;100
75089;BME280;63673;49.928;8.150;2023-05-14T02:10:08;991.98;;;8.9;100
75089;BME280;63673;49.928;8.150;2023-05-14T02:11:10;991.99;;;8.89;100
75089;BME280;63673;49.928;8.150;2023-05-14T02:12:12;991.95;;;8.88;100
75089;BME280;63673;49.928;8.150;2023-05-14T02:13:14;991.89;;;8.88;100
75089;BME280;63673;49.928;8.150;2023-05-14T02:14:15;991.99;;;8.86;100
75089;BME280;63673;49.928;8.150;2023-05-14T02:15:17;991.95;;;8.85;100
75089;BME280;63673;49.928;8.150;2023-05-14T02:16:19;991.88;;;8.84;100
75089;BME280;63673;49.928;8.150;2023-05-14T02:17:20;991.98;;;8.84;100
75089;BME280;63673;49.928;8.150;2023-05-14T02:18:22;991.92;;;8.83;100
75089;BME280;63673;49.928;8.150;2023-05-14T02:19:24;991.94;;;8.83;100
75089;BME280;63673;49.928;8.150;2023-05-14T02:20:26;991.93;;;8.84;100
75089;BME280;63673;49.928;8.150;2023-05-14T02:21:28;991.95;;;8.84;100
75089;BME280;63673;49.928;8.150;2023-05-14T02:22:29;991.89;;;8.84;100
75089;BME280;63673;49.928;8.150;2023-05-14T02:23:31;991.96;;;8.84;100
75089;BME280;63673;49.928;8.150;2023-05-14T02:24:33;991.94;;;8.84;100
75089;BME280;63673;49.928;8.150;2023-05-14T02:25:34;991.96;;;8.84;100
75089;BME280;63673;49.928;8.150;2023-05-14T02:26:36;991.96;;;8.84;100
75089;BME280;63673;49.928;8.150;2023-05-14T02:27:38;991.97;;;8.84;100
75089;BME280;63673;49.928;8.150;2023-05-14T02:28:40;991.97;;;8.83;100
75089;BME280;63673;49.928;8.150;2023-05-14T02:29:41;991.97;;;8.82;100
75089;BME280;63673;49.928;8.150;2023-05-14T02:30:43;991.94;;;8.82;100
75089;BME280;63673;49.928;8.150;2023-05-14T02:31:45;991.93;;;8.8;100
75089;BME280;63673;49.928;8.150;2023-05-14T02:32:46;991.9;;;8.81;100
75089;BME280;63673;49.928;8.150;2023-05-14T02:33:48;991.93;;;8.8;100
75089;BME280;63673;49.928;8.150;2023-05-14T02:34:50;991.93;;;8.79;100
75089;BME280;63673;49.928;8.150;2023-05-14T02:35:52;991.93;;;8.79;100
75089;BME280;63673;49.928;8.150;2023-05-14T02:36:53;991.85;;;8.77;100
75089;BME280;63673;49.928;8.150;2023-05-14T02:37:55;991.92;;;8.77;100
75089;BME280;63673;49.928;8.150;2023-05-14T02:38:57;991.88;;;8.75;100
75089;BME280;63673;49.928;8.150;2023-05-14T02:39:59;991.9;;;8.73;100
75089;BME280;63673;49.928;8.150;2023-05-14T02:41:00;991.86;;;8.7;100
75089;BME280;63673;49.928;8.150;2023-05-14T02:42:02;991.87;;;8.68;100
75089;BME280;63673;49.928;8.150;2023-05-14T02:43:04;991.85;;;8.65;100
75089;BME280;63673;49.928;8.150;2023-05-14T02:44:05;991.82;;;8.63;100
75089;BME280;63673;49.928;8.150;2023-05-14T02:45:07;991.87;;;8.6;100
75089;BME280;63673;49.928;8.150;2023-05-14T02:46:09;991.81;;;8.58;100
75089;BME280;63673;49.928;8.150;2023-05-14T02:47:11;991.87;;;8.56;100
75089;BME280;63673;49.928;8.150;2023-05-14T02:48:12;991.87;;;8.52;100
75089;BME280;63673;49.928;8.150;2023-05-14T02:49:14;991.88;;;8.5;100
75089;BME280;63673;49.928;8.150;2023-05-14T02:50:16;991.83;;;8.46;100
75089;BME280;63673;49.928;8.150;2023-05-14T02:51:18;991.82;;;8.44;100
75089;BME280;63673;49.928;8.150;2023-05-14T02:52:19;991.83;;;8.42;100
75089;BME280;63673;49.928;8.150;2023-05-14T02:53:21;991.81;;;8.39;100
75089;BME280;63673;49.928;8.150;2023-05-14T02:54:23;991.83;;;8.38;100
75089;BME280;63673;49.928;8.150;2023-05-14T02:55:25;991.84;;;8.36;100
75089;BME280;63673;49.928;8.150;2023-05-14T02:56:26;991.87;;;8.35;100
75089;BME280;63673;49.928;8.150;2023-05-14T02:57:28;991.84;;;8.33;100
75089;BME280;63673;49.928;8.150;2023-05-14T02:58:30;991.87;;;8.33;100
75089;BME280;63673;49.928;8.150;2023-05-14T02:59:31;991.84;;;8.32;100
75089;BME280;63673;49.928;8.150;2023-05-14T03:00:33;991.82;;;8.31;100
75089;BME280;63673;49.928;8.150;2023-05-14T03:01:35;991.85;;;8.31;100
75089;BME280;63673;49.928;8.150;2023-05-14T03:02:37;991.86;;;8.31;100
75089;BME280;63673;49.928;8.150;2023-05-14T03:03:38;991.88;;;8.3;100
75089;BME280;63673;49.928;8.150;2023-05-14T03:04:40;991.84;;;8.29;100
75089;BME280;63673;49.928;8.150;2023-05-14T03:05:42;991.82;;;8.29;100
75089;BME280;63673;49.928;8.150;2023-05-14T03:06:44;991.85;;;8.28;100
75089;BME280;63673;49.928;8.150;2023-05-14T03:07:45;991.79;;;8.28;100
75089;BME280;63673;49.928;8.150;2023-05-14T03:08:47;991.82;;;8.28;100
75089;BME280;63673;49.928;8.150;2023-05-14T03:09:49;991.78;;;8.27;100
75089;BME280;63673;49.928;8.150;2023-05-14T03:10:51;991.86;;;8.27;100
75089;BME280;63673;49.928;8.150;2023-05-14T03:11:53;991.79;;;8.27;100
75089;BME280;63673;49.928;8.150;2023-05-14T03:12:54;991.82;;;8.27;100
75089;BME280;63673;49.928;8.150;2023-05-14T03:13:56;991.82;;;8.26;100
75089;BME280;63673;49.928;8.150;2023-05-14T03:14:57;991.84;;;8.26;100
75089;BME280;63673;49.928;8.150;2023-05-14T03:15:59;991.81;;;8.26;100
75089;BME280;63673;49.928;8.150;2023-05-14T03:17:01;991.83;;;8.26;100
75089;BME280;63673;49.928;8.150;2023-05-14T03:18:03;991.82;;;8.25;100
75089;BME280;63673;49.928;8.150;2023-05-14T03:19:04;991.83;;;8.24;100
75089;BME280;63673;49.928;8.150;2023-05-14T03:20:06;991.84;;;8.23;100
75089;BME280;63673;49.928;8.150;2023-05-14T03:21:08;991.83;;;8.21;100
75089;BME280;63673;49.928;8.150;2023-05-14T03:22:10;991.81;;;8.21;100
75089;BME280;63673;49.928;8.150;2023-05-14T03:23:11;991.81;;;8.19;100
75089;BME280;63673;49.928;8.150;2023-05-14T03:24:13;991.81;;;8.17;100
75089;BME280;63673;49.928;8.150;2023-05-14T03:25:15;991.8;;;8.16;100
75089;BME280;63673;49.928;8.150;2023-05-14T03:26:17;991.79;;;8.13;100
75089;BME280;63673;49.928;8.150;2023-05-14T03:27:18;991.8;;;8.12;100
75089;BME280;63673;49.928;8.150;2023-05-14T03:28:20;991.75;;;8.1;100
75089;BME280;63673;49.928;8.150;2023-05-14T03:29:22;991.79;;;8.08;100
75089;BME280;63673;49.928;8.150;2023-05-14T03:30:23;991.81;;;8.08;100
75089;BME280;63673;49.928;8.150;2023-05-14T03:31:25;991.85;;;8.06;100
75089;BME280;63673;49.928;8.150;2023-05-14T03:32:27;991.77;;;8.05;100
75089;BME280;63673;49.928;8.150;2023-05-14T03:33:29;991.83;;;8.04;100
75089;BME280;63673;49.928;8.150;2023-05-14T03:34:30;991.81;;;8.03;100
75089;BME280;63673;49.928;8.150;2023-05-14T03:35:32;991.82;;;8.02;100
75089;BME280;63673;49.928;8.150;2023-05-14T03:36:34;991.85;;;8.01;100
75089;BME280;63673;49.928;8.150;2023-05-14T03:37:36;991.84;;;8.01;100
75089;BME280;63673;49.928;8.150;2023-05-14T03:38:37;991.8;;;7.99;100
75089;BME280;63673;49.928;8.150;2023-05-14T03:39:39;991.84;;;7.99;100
75089;BME280;63673;49.928;8.150;2023-05-14T03:40:43;991.82;;;7.98;100
75089;BME280;63673;49.928;8.150;2023-05-14T03:41:43;991.83;;;7.96;100
75089;BME280;63673;49.928;8.150;2023-05-14T03:42:44;991.8;;;7.95;100
75089;BME280;63673;49.928;8.150;2023-05-14T03:43:46;991.81;;;7.94;100
75089;BME280;63673;49.928;8.150;2023-05-14T03:44:48;991.82;;;7.92;100
75089;BME280;63673;49.928;8.150;2023-05-14T03:45:49;991.8;;;7.91;100
75089;BME280;63673;49.928;8.150;2023-05-14T03:46:51;991.77;;;7.9;100
75089;BME280;63673;49.928;8.150;2023-05-14T03:47:53;991.8;;;7.89;100
75089;BME280;63673;49.928;8.150;2023-05-14T03:48:55;991.83;;;7.86;100
75089;BME280;63673;49.928;8.150;2023-05-14T03:49:57;991.8;;;7.85;100
75089;BME280;63673;49.928;8.150;2023-05-14T03:50:58;991.77;;;7.84;100
75089;BME280;63673;49.928;8.150;2023-05-14T03:52:00;991.78;;;7.83;100
75089;BME280;63673;49.928;8.150;2023-05-14T03:53:02;991.78;;;7.8;100
75089;BME280;63673;49.928;8.150;2023-05-14T03:54:03;991.75;;;7.79;100
75089;BME280;63673;49.928;8.150;2023-05-14T03:55:05;991.78;;;7.78;100
75089;BME280;63673;49.928;8.150;2023-05-14T03:56:07;991.77;;;7.76;100
75089;BME280;63673;49.928;8.150;2023-05-14T03:57:09;991.77;;;7.74;100
75089;BME280;63673;49.928;8.150;2023-05-14T03:58:10;991.79;;;7.74;100
75089;BME280;63673;49.928;8.150;2023-05-14T03:59:12;991.76;;;7.73;100
75089;BME280;63673;49.928;8.150;2023-05-14T04:00:14;991.76;;;7.72;100
75089;BME280;63673;49.928;8.150;2023-05-14T04:01:15;991.76;;;7.7;100
75089;BME280;63673;49.928;8.150;2023-05-14T04:02:17;991.78;;;7.7;100
75089;BME280;63673;49.928;8.150;2023-05-14T04:03:19;991.78;;;7.7;100
75089;BME280;63673;49.928;8.150;2023-05-14T04:04:21;991.75;;;7.71;100
75089;BME280;63673;49.928;8.150;2023-05-14T04:05:22;991.76;;;7.71;100
75089;BME280;63673;49.928;8.150;2023-05-14T04:06:24;991.74;;;7.71;100
75089;BME280;63673;49.928;8.150;2023-05-14T04:07:26;991.74;;;7.72;100
75089;BME280;63673;49.928;8.150;2023-05-14T04:08:28;991.74;;;7.72;100
75089;BME280;63673;49.928;8.150;2023-05-14T04:09:29;991.74;;;7.74;100
75089;BME280;63673;49.928;8.150;2023-05-14T04:10:31;991.7;;;7.74;100
75089;BME280;63673;49.928;8.150;2023-05-14T04:11:33;991.72;;;7.76;100
75089;BME280;63673;49.928;8.150;2023-05-14T04:12:35;991.76;;;7.77;100
75089;BME280;63673;49.928;8.150;2023-05-14T04:13:36;991.71;;;7.79;100
75089;BME280;63673;49.928;8.150;2023-05-14T04:14:38;991.71;;;7.8;100
75089;BME280;63673;49.928;8.150;2023-05-14T04:15:40;991.74;;;7.82;100
75089;BME280;63673;49.928;8.150;2023-05-14T04:16:42;991.7;;;7.84;100
75089;BME280;63673;49.928;8.150;2023-05-14T04:17:43;991.68;;;7.86;100
75089;BME280;63673;49.928;8.150;2023-05-14T04:18:45;991.73;;;7.89;100
75089;BME280;63673;49.928;8.150;2023-05-14T04:19:47;991.73;;;7.92;100
75089;BME280;63673;49.928;8.150;2023-05-14T04:20:48;991.76;;;7.96;100
75089;BME280;63673;49.928;8.150;2023-05-14T04:21:50;991.79;;;7.98;100
75089;BME280;63673;49.928;8.150;2023-05-14T04:22:52;991.76;;;8.01;100
75089;BME280;63673;49.928;8.150;2023-05-14T04:23:54;991.8;;;8.04;100
75089;BME280;63673;49.928;8.150;2023-05-14T04:24:55;991.77;;;8.08;100
75089;BME280;63673;49.928;8.150;2023-05-14T04:25:57;991.78;;;8.12;100
75089;BME280;63673;49.928;8.150;2023-05-14T04:26:59;991.78;;;8.15;100
75089;BME280;63673;49.928;8.150;2023-05-14T04:28:01;991.75;;;8.2;100
75089;BME280;63673;49.928;8.150;2023-05-14T04:29:02;991.78;;;8.24;100
75089;BME280;63673;49.928;8.150;2023-05-14T04:30:04;991.79;;;8.28;100
75089;BME280;63673;49.928;8.150;2023-05-14T04:31:06;991.74;;;8.32;100
75089;BME280;63673;49.928;8.150;2023-05-14T04:32:07;991.81;;;8.36;100
75089;BME280;63673;49.928;8.150;2023-05-14T04:33:09;991.83;;;8.4;100
75089;BME280;63673;49.928;8.150;2023-05-14T04:34:11;991.83;;;8.44;100
75089;BME280;63673;49.928;8.150;2023-05-14T04:35:13;991.83;;;8.49;100
75089;BME280;63673;49.928;8.150;2023-05-14T04:36:14;991.86;;;8.53;100
75089;BME280;63673;49.928;8.150;2023-05-14T04:37:16;991.86;;;8.58;100
75089;BME280;63673;49.928;8.150;2023-05-14T04:38:18;991.89;;;8.63;100
75089;BME280;63673;49.928;8.150;2023-05-14T04:39:20;991.88;;;8.68;100
75089;BME280;63673;49.928;8.150;2023-05-14T04:40:21;991.88;;;8.74;100
75089;BME280;63673;49.928;8.150;2023-05-14T04:41:23;991.89;;;8.79;100
75089;BME280;63673;49.928;8.150;2023-05-14T04:42:25;991.87;;;8.85;100
75089;BME280;63673;49.928;8.150;2023-05-14T04:43:27;991.82;;;8.91;100
75089;BME280;63673;49.928;8.150;2023-05-14T04:44:28;991.89;;;8.97;100
75089;BME280;63673;49.928;8.150;2023-05-14T04:45:30;991.89;;;9.02;100
75089;BME280;63673;49.928;8.150;2023-05-14T04:46:32;991.88;;;9.08;100
75089;BME280;63673;49.928;8.150;2023-05-14T04:47:34;991.86;;;9.14;100
75089;BME280;63673;49.928;8.150;2023-05-14T04:48:35;991.87;;;9.19;100
75089;BME280;63673;49.928;8.150;2023-05-14T04:49:37;991.82;;;9.24;100
75089;BME280;63673;49.928;8.150;2023-05-14T04:50:39;991.77;;;9.29;100
75089;BME280;63673;49.928;8.150;2023-05-14T04:51:40;991.8;;;9.34;100
75089;BME280;63673;49.928;8.150;2023-05-14T04:52:42;991.83;;;9.39;100
75089;BME280;63673;49.928;8.150;2023-05-14T04:53:44;991.8;;;9.43;100
75089;BME280;63673;49.928;8.150;2023-05-14T04:54:46;991.81;;;9.47;100
75089;BME280;63673;49.928;8.150;2023-05-14T04:55:47;991.8;;;9.51;100
75089;BME280;63673;49.928;8.150;2023-05-14T04:56:49;991.83;;;9.56;100
75089;BME280;63673;49.928;8.150;2023-05-14T04:57:51;991.85;;;9.6;100
75089;BME280;63673;49.928;8.150;2023-05-14T04:58:53;991.84;;;9.64;100
75089;BME280;63673;49.928;8.150;2023-05-14T04:59:54;991.84;;;9.67;100
75089;BME280;63673;49.928;8.150;2023-05-14T05:00:56;991.84;;;9.7;100
75089;BME280;63673;49.928;8.150;2023-05-14T05:01:58;991.84;;;9.74;100
75089;BME280;63673;49.928;8.150;2023-05-14T05:03:00;991.87;;;9.77;100
75089;BME280;63673;49.928;8.150;2023-05-14T05:04:01;991.83;;;9.8;100
75089;BME280;63673;49.928;8.150;2023-05-14T05:05:03;991.9;;;9.84;100
75089;BME280;63673;49.928;8.150;2023-05-14T05:06:05;991.91;;;9.88;100
75089;BME280;63673;49.928;8.150;2023-05-14T05:07:06;991.9;;;9.92;100
75089;BME280;63673;49.928;8.150;2023-05-14T05:08:08;991.87;;;9.96;100
75089;BME280;63673;49.928;8.150;2023-05-14T05:09:10;991.88;;;10.01;100
75089;BME280;63673;49.928;8.150;2023-05-14T05:10:12;991.91;;;10.06;100
75089;BME280;63673;49.928;8.150;2023-05-14T05:11:13;991.89;;;10.11;100
75089;BME280;63673;49.928;8.150;2023-05-14T05:12:15;991.84;;;10.18;100
75089;BME280;63673;49.928;8.150;2023-05-14T05:13:17;991.89;;;10.25;100
75089;BME280;63673;49.928;8.150;2023-05-14T05:14:19;991.87;;;10.32;100
75089;BME280;63673;49.928;8.150;2023-05-14T05:15:20;991.89;;;10.33;100
75089;BME280;63673;49.928;8.150;2023-05-14T05:16:22;991.85;;;10.36;100
75089;BME280;63673;49.928;8.150;2023-05-14T05:17:24;991.84;;;10.39;100
75089;BME280;63673;49.928;8.150;2023-05-14T05:18:26;991.84;;;10.41;100
75089;BME280;63673;49.928;8.150;2023-05-14T05:19:27;991.87;;;10.45;100
75089;BME280;63673;49.928;8.150;2023-05-14T05:20:29;991.9;;;10.46;100
75089;BME280;63673;49.928;8.150;2023-05-14T05:21:31;991.87;;;10.49;100
75089;BME280;63673;49.928;8.150;2023-05-14T05:22:32;991.89;;;10.51;100
75089;BME280;63673;49.928;8.150;2023-05-14T05:23:34;991.91;;;10.54;100
75089;BME280;63673;49.928;8.150;2023-05-14T05:24:36;991.91;;;10.56;100
75089;BME280;63673;49.928;8.150;2023-05-14T05:25:38;991.93;;;10.58;100
75089;BME280;63673;49.928;8.150;2023-05-14T05:26:39;991.93;;;10.6;100
75089;BME280;63673;49.928;8.150;2023-05-14T05:27:41;991.9;;;10.65;100
75089;BME280;63673;49.928;8.150;2023-05-14T05:28:43;991.92;;;10.67;100
75089;BME280;63673;49.928;8.150;2023-05-14T05:29:45;991.9;;;10.71;100
75089;BME280;63673;49.928;8.150;2023-05-14T05:30:46;991.93;;;10.77;100
75089;BME280;63673;49.928;8.150;2023-05-14T05:31:48;991.92;;;10.87;100
75089;BME280;63673;49.928;8.150;2023-05-14T05:32:50;991.89;;;10.96;100
75089;BME280;63673;49.928;8.150;2023-05-14T05:33:52;991.88;;;11.06;100
75089;BME280;63673;49.928;8.150;2023-05-14T05:34:53;991.8;;;11.18;100
75089;BME280;63673;49.928;8.150;2023-05-14T05:35:55;991.84;;;11.31;100
75089;BME280;63673;49.928;8.150;2023-05-14T05:36:57;991.83;;;11.44;100
75089;BME280;63673;49.928;8.150;2023-05-14T05:37:58;991.86;;;11.57;100
75089;BME280;63673;49.928;8.150;2023-05-14T05:39:00;991.86;;;11.68;100
75089;BME280;63673;49.928;8.150;2023-05-14T05:40:02;991.85;;;11.77;100
75089;BME280;63673;49.928;8.150;2023-05-14T05:41:04;991.82;;;11.91;100
75089;BME280;63673;49.928;8.150;2023-05-14T05:42:06;991.82;;;11.99;100
75089;BME280;63673;49.928;8.150;2023-05-14T05:43:07;991.86;;;12.07;100
75089;BME280;63673;49.928;8.150;2023-05-14T05:44:09;991.84;;;12.21;100
75089;BME280;63673;49.928;8.150;2023-05-14T05:45:11;991.9;;;12.28;100
75089;BME280;63673;49.928;8.150;2023-05-14T05:46:12;991.83;;;12.39;100
75089;BME280;63673;49.928;8.150;2023-05-14T05:47:14;991.87;;;12.49;100
75089;BME280;63673;49.928;8.150;2023-05-14T05:48:16;991.87;;;12.58;100
75089;BME280;63673;49.928;8.150;2023-05-14T05:49:18;991.88;;;12.69;100